createdAt,value
2022-08-26T00:02:01.598Z,98861.84
2022-08-26T00:04:29.218Z,98860.44
2022-08-26T00:06:57.071Z,98858.59
2022-08-26T00:09:25.727Z,98855.56
2022-08-26T00:11:54.640Z,98855.22
2022-08-26T00:14:28.335Z,98857.97
2022-08-26T00:16:58.685Z,98858.53
2022-08-26T00:19:26.612Z,98859.09
2022-08-26T00:21:54.240Z,98860.22
2022-08-26T00:24:23.530Z,98850.75
2022-08-26T00:26:51.744Z,98839.91
2022-08-26T00:29:21.213Z,98841.72
2022-08-26T00:31:48.762Z,98847.91
2022-08-26T00:34:16.848Z,98845.84
2022-08-26T00:36:49.196Z,98839.88
2022-08-26T00:39:20.244Z,98841.47
2022-08-26T00:41:48.145Z,98837.91
2022-08-26T00:44:15.477Z,98839.59
2022-08-26T00:46:47.191Z,98843.31
2022-08-26T00:49:20.582Z,98836.59
2022-08-26T00:51:54.581Z,98838.22
2022-08-26T00:54:27.037Z,98834.75
2022-08-26T00:57:16.516Z,98835.88
2022-08-26T00:59:51.488Z,98827.19
2022-08-26T01:02:21.175Z,98823.84
2022-08-26T01:04:55.697Z,98824.19
2022-08-26T01:07:30.325Z,98833.75
2022-08-26T01:10:01.461Z,98824.66
2022-08-26T01:12:34.023Z,98827.00
2022-08-26T01:15:02.235Z,98821.38
2022-08-26T01:17:29.921Z,98827.00
2022-08-26T01:20:10.662Z,98833.44
2022-08-26T01:22:50.822Z,98828.16
2022-08-26T01:25:21.621Z,98833.91
2022-08-26T01:27:50.965Z,98827.22
2022-08-26T01:30:19.150Z,98830.47
2022-08-26T01:32:48.107Z,98817.03
2022-08-26T01:35:15.608Z,98827.75
2022-08-26T01:37:43.763Z,98822.06
2022-08-26T01:40:17.113Z,98821.50
2022-08-26T01:42:44.965Z,98824.72
2022-08-26T01:45:25.786Z,98826.06
2022-08-26T01:47:57.023Z,98824.03
2022-08-26T01:50:34.153Z,98823.22
2022-08-26T01:53:06.907Z,98820.00
2022-08-26T01:55:35.476Z,98820.88
2022-08-26T01:58:10.920Z,98821.63
2022-08-26T02:00:39.460Z,98825.50
2022-08-26T02:03:17.526Z,98831.53
2022-08-26T02:06:00.688Z,98832.13
2022-08-26T02:08:37.448Z,98825.97
2022-08-26T02:11:05.089Z,98826.72
2022-08-26T02:13:37.855Z,98822.78
2022-08-26T02:16:06.190Z,98825.72
2022-08-26T02:18:39.187Z,98822.41
2022-08-26T02:21:08.157Z,98818.28
2022-08-26T02:23:35.853Z,98816.34
2022-08-26T02:26:21.706Z,98821.25
2022-08-26T02:29:10.875Z,98828.66
2022-08-26T02:31:39.449Z,98827.88
2022-08-26T02:34:15.971Z,98827.88
2022-08-26T02:36:43.804Z,98820.59
2022-08-26T02:39:12.184Z,98819.06
2022-08-26T02:41:45.192Z,98825.72
2022-08-26T02:44:13.272Z,98823.75
2022-08-26T02:46:41.181Z,98826.00
2022-08-26T02:49:10.329Z,98815.88
2022-08-26T02:51:38.632Z,98816.19
2022-08-26T02:54:07.285Z,98819.38
2022-08-26T02:56:35.291Z,98824.50
2022-08-26T02:59:02.857Z,98819.03
2022-08-26T03:01:34.358Z,98820.03
2022-08-26T03:04:04.449Z,98816.81
2022-08-26T03:06:31.816Z,98818.75
2022-08-26T03:08:59.988Z,98824.00
2022-08-26T03:11:32.274Z,98823.06
2022-08-26T03:14:00.685Z,98821.50
2022-08-26T03:16:39.294Z,98820.66
2022-08-26T03:19:08.445Z,98816.50
2022-08-26T03:21:38.120Z,98816.25
2022-08-26T03:24:05.967Z,98813.34
2022-08-26T03:26:33.384Z,98807.81
2022-08-26T03:29:20.143Z,98814.88
2022-08-26T03:31:47.459Z,98813.69
2022-08-26T03:34:15.175Z,98816.38
2022-08-26T03:36:42.621Z,98817.59
2022-08-26T03:39:11.079Z,98814.94
2022-08-26T03:41:38.715Z,98813.38
2022-08-26T03:44:09.005Z,98814.69
2022-08-26T03:46:36.775Z,98825.44
2022-08-26T03:49:07.895Z,98822.78
2022-08-26T03:51:38.911Z,98831.34
2022-08-26T03:54:08.511Z,98829.56
2022-08-26T03:56:36.836Z,98832.94
2022-08-26T03:59:07.462Z,98828.09
2022-08-26T04:01:36.176Z,98826.88
2022-08-26T04:04:04.316Z,98827.59
2022-08-26T04:06:43.359Z,98831.81
2022-08-26T04:09:19.939Z,98831.34
2022-08-26T04:11:50.526Z,98822.69
2022-08-26T04:14:21.711Z,98826.97
2022-08-26T04:16:49.930Z,98826.97
2022-08-26T04:19:19.329Z,98829.81
2022-08-26T04:21:48.614Z,98827.22
2022-08-26T04:24:17.643Z,98835.34
2022-08-26T04:26:45.808Z,98837.38
2022-08-26T04:29:18.173Z,98847.75
2022-08-26T04:31:46.076Z,98840.75
2022-08-26T04:34:14.113Z,98834.72
2022-08-26T04:36:43.132Z,98833.91
2022-08-26T04:39:12.586Z,98842.94
2022-08-26T04:41:40.292Z,98848.72
2022-08-26T04:44:07.920Z,98846.56
2022-08-26T04:46:36.536Z,98837.31
2022-08-26T04:49:11.134Z,98844.47
2022-08-26T04:51:39.134Z,98843.50
2022-08-26T04:54:07.663Z,98841.13
2022-08-26T04:56:38.909Z,98847.25
2022-08-26T04:59:08.322Z,98848.94
2022-08-26T05:01:47.121Z,98842.13
2022-08-26T05:04:18.742Z,98848.19
2022-08-26T05:06:52.137Z,98855.06
2022-08-26T05:09:20.296Z,98854.00
2022-08-26T05:11:52.033Z,98854.16
2022-08-26T05:14:20.873Z,98848.72
2022-08-26T05:16:48.249Z,98856.28
2022-08-26T05:19:19.117Z,98860.91
2022-08-26T05:21:48.717Z,98856.84
2022-08-26T05:24:18.422Z,98863.81
2022-08-26T05:26:48.271Z,98862.53
2022-08-26T05:29:16.050Z,98870.81
2022-08-26T05:31:44.357Z,98872.38
2022-08-26T05:34:12.651Z,98880.53
2022-08-26T05:36:40.262Z,98879.59
2022-08-26T05:39:10.554Z,98874.94
2022-08-26T05:41:41.132Z,98877.22
2022-08-26T05:44:12.034Z,98870.69
2022-08-26T05:46:44.096Z,98874.66
2022-08-26T05:49:13.227Z,98866.06
2022-08-26T05:51:45.234Z,98865.72
2022-08-26T05:54:14.482Z,98871.22
2022-08-26T05:56:49.283Z,98876.56
2022-08-26T05:59:16.643Z,98881.28
2022-08-26T06:01:52.188Z,98889.53
2022-08-26T06:04:20.042Z,98897.94
2022-08-26T06:06:47.942Z,98896.91
2022-08-26T06:09:18.212Z,98895.25
2022-08-26T06:11:45.933Z,98900.91
2022-08-26T06:14:13.273Z,98913.25
2022-08-26T06:16:45.168Z,98905.22
2022-08-26T06:19:16.694Z,98915.81
2022-08-26T06:21:51.330Z,98917.34
2022-08-26T06:24:44.523Z,98916.53
2022-08-26T06:27:15.345Z,98922.31
2022-08-26T06:29:42.995Z,98928.97
2022-08-26T06:32:10.851Z,98930.72
2022-08-26T06:34:38.439Z,98928.91
2022-08-26T06:37:07.223Z,98930.59
2022-08-26T06:39:34.988Z,98933.91
2022-08-26T06:42:06.146Z,98940.13
2022-08-26T06:44:34.899Z,98940.19
2022-08-26T06:47:02.172Z,98939.41
2022-08-26T06:49:30.532Z,98950.97
2022-08-26T06:52:01.313Z,98950.91
2022-08-26T06:54:31.837Z,98947.03
2022-08-26T06:56:59.471Z,98949.38
2022-08-26T06:59:27.317Z,98960.13
2022-08-26T07:01:55.255Z,98964.72
2022-08-26T07:04:25.012Z,98958.59
2022-08-26T07:06:56.578Z,98961.38
2022-08-26T07:09:28.188Z,98958.84
2022-08-26T07:11:58.865Z,98955.00
2022-08-26T07:14:26.661Z,98958.78
2022-08-26T07:16:54.552Z,98953.41
2022-08-26T07:19:29.882Z,98962.06
2022-08-26T07:22:04.586Z,98966.53
2022-08-26T07:24:37.118Z,98975.25
2022-08-26T07:27:08.581Z,98969.69
2022-08-26T07:29:37.687Z,98968.38
2022-08-26T07:32:05.218Z,98965.38
2022-08-26T07:34:33.080Z,98975.56
2022-08-26T07:37:01.037Z,98976.19
2022-08-26T07:39:28.458Z,98978.56
2022-08-26T07:42:00.301Z,98982.75
2022-08-26T07:44:28.665Z,98977.22
2022-08-26T07:46:56.677Z,98973.88
2022-08-26T07:49:26.788Z,98974.34
2022-08-26T07:51:56.066Z,98987.22
2022-08-26T07:54:24.613Z,98987.72
2022-08-26T07:56:55.864Z,98982.31
2022-08-26T07:59:24.410Z,98983.94
2022-08-26T08:01:52.118Z,98972.16
2022-08-26T08:04:26.233Z,98968.22
2022-08-26T08:06:55.114Z,98964.03
2022-08-26T08:09:23.081Z,98957.81
2022-08-26T08:11:51.372Z,98949.44
2022-08-26T08:14:22.215Z,98961.31
2022-08-26T08:16:51.134Z,98950.97
2022-08-26T08:19:22.083Z,98955.81
2022-08-26T08:21:49.754Z,98958.88
2022-08-26T08:24:18.559Z,98973.53
2022-08-26T08:26:46.145Z,98973.28
2022-08-26T08:29:13.874Z,98971.72
2022-08-26T08:31:58.078Z,98974.38
2022-08-26T08:34:28.694Z,98971.03
2022-08-26T08:36:57.542Z,98966.13
2022-08-26T08:39:25.366Z,98968.91
2022-08-26T08:42:10.899Z,98961.81
2022-08-26T08:44:42.478Z,98964.81
2022-08-26T08:47:35.972Z,98968.81
2022-08-26T08:50:13.272Z,98961.59
2022-08-26T08:52:44.444Z,98953.22
2022-08-26T08:55:18.107Z,98957.97
2022-08-26T08:58:08.368Z,98950.97
2022-08-26T09:00:55.430Z,98965.19
2022-08-26T09:03:37.625Z,98960.50
2022-08-26T09:06:16.995Z,98959.31
2022-08-26T09:08:47.500Z,98972.03
2022-08-26T09:11:19.711Z,98965.84
2022-08-26T09:13:55.901Z,98963.38
2022-08-26T09:16:39.736Z,98966.91
2022-08-26T09:19:43.486Z,98973.31
2022-08-26T09:22:10.965Z,98972.34
2022-08-26T09:24:42.101Z,98971.97
2022-08-26T09:27:41.509Z,98976.13
2022-08-26T09:30:11.657Z,98980.38
2022-08-26T09:32:39.913Z,98982.16
2022-08-26T09:35:25.446Z,98987.53
2022-08-26T09:37:53.294Z,98994.47
2022-08-26T09:40:30.948Z,98997.06
2022-08-26T09:43:22.604Z,98990.06
2022-08-26T09:45:59.199Z,98987.94
2022-08-26T09:48:36.695Z,98987.19
2022-08-26T09:51:31.077Z,98991.88
2022-08-26T09:54:00.883Z,98991.41
2022-08-26T09:56:37.443Z,98992.00
2022-08-26T09:59:10.913Z,98991.72
2022-08-26T10:01:44.728Z,98997.56
2022-08-26T10:04:22.862Z,98999.97
2022-08-26T10:07:05.168Z,99003.88
2022-08-26T10:09:39.514Z,99002.31
2022-08-26T10:12:35.204Z,99005.03
2022-08-26T10:15:10.517Z,99002.06
2022-08-26T10:17:56.086Z,98999.31
2022-08-26T10:20:27.763Z,99006.91
2022-08-26T10:23:10.043Z,98989.03
2022-08-26T10:25:51.913Z,98985.84
2022-08-26T10:28:47.359Z,98995.31
2022-08-26T10:31:28.358Z,98989.63
2022-08-26T10:34:00.323Z,98989.34
2022-08-26T10:40:02.701Z,98977.00
2022-08-26T10:42:54.418Z,98976.31
2022-08-26T10:45:30.305Z,98972.19
2022-08-26T10:48:00.915Z,98984.09
2022-08-26T10:50:37.618Z,98975.81
2022-08-26T10:53:17.081Z,98978.63
2022-08-26T10:55:54.831Z,98977.47
2022-08-26T10:58:50.576Z,98966.72
2022-08-26T11:01:42.126Z,98966.28
2022-08-26T11:04:34.975Z,98964.47
2022-08-26T11:07:36.787Z,98960.03
2022-08-26T11:10:25.376Z,98959.72
2022-08-26T11:12:54.126Z,98949.63
2022-08-26T11:15:24.575Z,98948.69
2022-08-26T11:17:52.114Z,98948.97
2022-08-26T11:20:34.376Z,98945.34
2022-08-26T11:23:14.002Z,98945.81
2022-08-26T11:26:10.154Z,98943.47
2022-08-26T11:28:50.879Z,98943.72
2022-08-26T11:31:26.681Z,98949.47
2022-08-26T11:34:08.691Z,98936.06
2022-08-26T11:36:40.622Z,98938.31
2022-08-26T11:39:29.474Z,98936.88
2022-08-26T11:42:02.256Z,98938.28
2022-08-26T11:44:41.766Z,98937.53
2022-08-26T11:47:25.323Z,98948.50
2022-08-26T11:50:11.139Z,98938.31
2022-08-26T11:52:38.470Z,98941.94
2022-08-26T11:55:09.167Z,98937.13
2022-08-26T11:57:47.066Z,98927.19
2022-08-26T12:00:38.867Z,98930.47
2022-08-26T12:03:21.536Z,98924.63
2022-08-26T12:05:53.242Z,98932.28
2022-08-26T12:08:24.998Z,98918.00
2022-08-26T12:11:06.796Z,98919.66
2022-08-26T12:13:34.222Z,98912.44
2022-08-26T12:16:02.695Z,98901.34
2022-08-26T12:18:33.427Z,98905.25
2022-08-26T12:21:12.355Z,98901.97
2022-08-26T12:23:41.860Z,98901.03
2022-08-26T12:26:25.823Z,98896.69
2022-08-26T12:28:58.404Z,98895.63
2022-08-26T12:31:33.119Z,98900.03
2022-08-26T12:34:06.245Z,98892.94
2022-08-26T12:36:49.103Z,98893.97
2022-08-26T12:39:27.992Z,98886.88
2022-08-26T12:42:21.658Z,98885.00
2022-08-26T12:45:06.508Z,98882.03
2022-08-26T12:47:44.198Z,98873.47
2022-08-26T12:50:27.926Z,98886.91
2022-08-26T12:53:01.249Z,98877.00
2022-08-26T12:55:48.411Z,98879.56
2022-08-26T12:58:15.692Z,98869.09
2022-08-26T13:00:48.542Z,98870.31
2022-08-26T13:03:35.313Z,98875.31
2022-08-26T13:06:17.654Z,98869.78
2022-08-26T13:09:01.716Z,98875.50
2022-08-26T13:11:39.559Z,98859.00
2022-08-26T13:14:21.113Z,98870.41
2022-08-26T13:16:52.921Z,98867.22
2022-08-26T13:19:23.560Z,98869.56
2022-08-26T13:21:53.982Z,98873.00
2022-08-26T13:24:29.107Z,98865.66
2022-08-26T13:26:57.035Z,98872.13
2022-08-26T13:29:24.355Z,98869.84
2022-08-26T13:31:52.401Z,98867.25
2022-08-26T13:34:22.430Z,98871.72
2022-08-26T13:36:51.878Z,98867.44
2022-08-26T13:39:19.841Z,98865.00
2022-08-26T13:41:47.696Z,98862.56
2022-08-26T13:44:14.941Z,98867.22
2022-08-26T13:46:42.726Z,98862.56
2022-08-26T13:49:13.928Z,98864.16
2022-08-26T13:51:41.890Z,98863.22
2022-08-26T13:54:09.259Z,98863.91
2022-08-26T13:56:37.505Z,98866.34
2022-08-26T13:59:05.587Z,98857.38
2022-08-26T14:01:34.495Z,98854.44
2022-08-26T14:04:03.154Z,98852.00
2022-08-26T14:06:31.125Z,98856.16
2022-08-26T14:08:58.670Z,98856.38
2022-08-26T14:11:26.104Z,98860.44
2022-08-26T14:13:53.479Z,98867.34
2022-08-26T14:16:28.247Z,98868.84
2022-08-26T14:18:55.614Z,98867.38
2022-08-26T14:21:24.376Z,98868.16
2022-08-26T14:23:51.625Z,98863.81
2022-08-26T14:26:28.735Z,98868.59
2022-08-26T14:29:00.150Z,98861.69
2022-08-26T14:31:29.868Z,98860.41
2022-08-26T14:34:03.225Z,98859.47
2022-08-26T14:36:33.860Z,98858.09
2022-08-26T14:39:09.387Z,98866.34
2022-08-26T14:41:43.366Z,98858.31
2022-08-26T14:44:13.892Z,98861.44
2022-08-26T14:46:47.919Z,98858.31
2022-08-26T14:49:16.420Z,98856.63
2022-08-26T14:51:43.937Z,98852.00
2022-08-26T14:54:13.098Z,98851.16
2022-08-26T14:56:46.408Z,98845.34
2022-08-26T14:59:17.736Z,98842.34
2022-08-26T15:01:46.092Z,98845.81
2022-08-26T15:04:14.253Z,98854.66
2022-08-26T15:06:41.676Z,98853.66
2022-08-26T15:09:09.783Z,98859.63
2022-08-26T15:11:37.089Z,98858.13
2022-08-26T15:14:04.511Z,98859.22
2022-08-26T15:16:31.939Z,98852.22
2022-08-26T15:19:00.678Z,98855.19
2022-08-26T15:21:28.632Z,98849.88
2022-08-26T15:23:55.967Z,98852.06
2022-08-26T15:26:23.968Z,98847.19
2022-08-26T15:28:52.101Z,98851.25
2022-08-26T15:31:25.611Z,98850.84
2022-08-26T16:40:46.910Z,98837.72
2022-08-26T16:43:15.186Z,98835.66
2022-08-26T16:45:43.359Z,98834.66
2022-08-26T16:48:11.335Z,98841.66
2022-08-26T16:50:40.832Z,98842.47
2022-08-26T16:55:46.341Z,98849.94
2022-08-26T16:58:14.694Z,98853.94
2022-08-26T17:00:42.476Z,98852.53
2022-08-26T17:03:10.661Z,98856.09
2022-08-26T17:05:38.307Z,98860.41
2022-08-26T17:08:06.573Z,98869.00
2022-08-26T17:10:34.811Z,98863.88
2022-08-26T17:13:02.606Z,98867.25
2022-08-26T17:15:30.233Z,98866.28
2022-08-26T17:17:57.858Z,98864.25
2022-08-26T17:20:26.767Z,98866.63
2022-08-26T17:22:56.250Z,98864.47
2022-08-26T17:25:31.865Z,98869.22
2022-08-26T17:28:00.686Z,98869.78
2022-08-26T17:30:30.876Z,98869.66
2022-08-26T17:32:58.677Z,98867.50
2022-08-26T17:35:27.439Z,98873.66
2022-08-26T17:37:56.212Z,98866.75
2022-08-26T17:40:27.093Z,98872.03
2022-08-26T17:42:55.061Z,98875.06
2022-08-26T17:45:23.039Z,98882.91
2022-08-26T17:47:50.560Z,98890.91
2022-08-26T17:50:19.278Z,98890.25
2022-08-26T17:52:47.076Z,98889.75
2022-08-26T17:55:17.162Z,98880.69
2022-08-26T17:57:53.303Z,98889.31
2022-08-26T18:00:26.686Z,98887.38
2022-08-26T18:02:55.934Z,98895.25
2022-08-26T18:05:24.068Z,98896.44
2022-08-26T18:07:53.465Z,98898.25
2022-08-26T18:10:22.055Z,98899.13
2022-08-26T18:12:50.368Z,98909.66
2022-08-26T18:15:18.437Z,98902.84
2022-08-26T18:17:53.008Z,98902.41
2022-08-26T18:20:23.574Z,98904.25
2022-08-26T18:22:51.234Z,98905.56
2022-08-26T18:25:19.169Z,98906.13
2022-08-26T18:27:47.408Z,98904.16
2022-08-26T18:30:20.787Z,98904.47
2022-08-26T18:32:52.750Z,98907.69
2022-08-26T18:35:21.564Z,98906.50
2022-08-26T18:37:52.076Z,98910.34
2022-08-26T18:40:20.108Z,98904.06
2022-08-26T18:42:49.288Z,98906.06
2022-08-26T18:45:23.035Z,98910.50
2022-08-26T18:47:51.007Z,98915.56
2022-08-26T18:50:20.401Z,98920.06
2022-08-26T18:52:49.484Z,98923.25
2022-08-26T18:55:21.351Z,98932.16
2022-08-26T18:57:49.514Z,98926.06
2022-08-26T19:00:18.107Z,98927.09
2022-08-26T19:02:52.142Z,98924.63
2022-08-26T19:05:23.421Z,98925.09
2022-08-26T19:07:53.826Z,98918.56
2022-08-26T19:10:21.355Z,98916.78
2022-08-26T19:12:51.932Z,98917.47
2022-08-26T19:15:20.467Z,98919.16
2022-08-26T19:17:48.279Z,98921.06
2022-08-26T19:20:17.870Z,98921.69
2022-08-26T19:22:46.059Z,98924.28
2022-08-26T19:25:14.184Z,98924.28
2022-08-26T19:27:41.988Z,98925.13
2022-08-26T19:30:12.553Z,98936.44
2022-08-26T19:32:40.151Z,98939.66
2022-08-26T19:35:08.945Z,98945.19
2022-08-26T19:37:37.006Z,98944.78
2022-08-26T19:40:06.330Z,98949.13
2022-08-26T19:42:34.581Z,98945.00
2022-08-26T19:45:18.272Z,98946.03
2022-08-26T19:47:53.972Z,98946.69
2022-08-26T19:50:22.251Z,98955.56
2022-08-26T19:52:53.655Z,98954.13
2022-08-26T19:55:23.540Z,98953.03
2022-08-26T19:57:52.552Z,98960.41
2022-08-26T20:00:31.835Z,98953.03
2022-08-26T20:03:00.162Z,98958.69
2022-08-26T20:05:28.462Z,98960.44
2022-08-26T20:07:59.921Z,98955.81
2022-08-26T20:10:29.079Z,98958.41
2022-08-26T20:12:57.353Z,98951.81
2022-08-26T20:15:25.184Z,98948.72
2022-08-26T20:17:56.135Z,98945.56
2022-08-26T20:20:42.302Z,98944.41
2022-08-26T20:23:10.089Z,98938.34
2022-08-26T20:25:37.729Z,98939.59
2022-08-26T20:28:05.348Z,98937.38
2022-08-26T20:30:32.972Z,98931.03
2022-08-26T20:33:00.645Z,98935.13
2022-08-26T20:35:28.181Z,98939.22
2022-08-26T20:37:55.739Z,98947.03
2022-08-26T20:40:23.481Z,98940.03
2022-08-26T20:42:51.549Z,98941.22
2022-08-26T20:45:21.921Z,98939.91
2022-08-26T20:47:49.497Z,98943.53
2022-08-26T20:50:17.064Z,98937.63
2022-08-26T20:52:44.700Z,98936.03
2022-08-26T20:55:12.337Z,98939.31
2022-08-26T20:57:43.252Z,98933.78
2022-08-26T21:00:13.300Z,98942.94
2022-08-26T21:02:42.003Z,98950.63
2022-08-26T21:05:09.818Z,98953.06
2022-08-26T21:07:37.485Z,98953.91
2022-08-26T21:10:05.498Z,98956.94
2022-08-26T21:12:33.176Z,98956.84
2022-08-26T21:15:01.460Z,98957.56
2022-08-26T21:17:29.332Z,98959.28
2022-08-26T21:19:56.917Z,98961.25
2022-08-26T21:22:25.066Z,98959.44
2022-08-26T21:24:52.580Z,98950.38
2022-08-26T21:27:26.222Z,98957.31
2022-08-26T21:29:54.972Z,98964.00
2022-08-26T21:32:22.722Z,98960.34
2022-08-26T21:34:50.207Z,98958.59
2022-08-26T21:37:18.197Z,98954.88
2022-08-26T21:39:45.691Z,98952.50
2022-08-26T21:42:13.328Z,98963.50
2022-08-26T21:44:40.783Z,98959.06
2022-08-26T21:47:08.267Z,98957.28
2022-08-26T21:49:36.343Z,98956.63
2022-08-26T21:52:04.794Z,98956.38
2022-08-26T21:54:32.859Z,98960.94
2022-08-26T21:57:00.363Z,98967.47
2022-08-26T21:59:28.071Z,98967.16
2022-08-26T22:01:56.286Z,98971.88
2022-08-26T22:04:25.813Z,98965.09
2022-08-26T22:07:00.004Z,98968.31
2022-08-26T22:09:31.599Z,98961.50
2022-08-26T22:12:00.633Z,98966.63
2022-08-26T22:14:30.938Z,98964.13
2022-08-26T22:17:00.644Z,98955.44
2022-08-26T22:19:28.519Z,98957.22
2022-08-26T22:21:58.186Z,98965.63
2022-08-26T22:24:27.524Z,98963.22
2022-08-26T22:26:56.306Z,98961.94
2022-08-26T22:29:25.607Z,98965.19
2022-08-26T22:31:53.642Z,98961.09
2022-08-26T22:34:23.665Z,98958.78
2022-08-26T22:36:52.716Z,98960.47
2022-08-26T22:39:24.043Z,98960.66
2022-08-26T22:41:53.260Z,98963.03
2022-08-26T22:44:22.434Z,98960.13
2022-08-26T22:46:54.278Z,98958.63
2022-08-26T22:49:22.936Z,98964.75
2022-08-26T22:51:54.515Z,98962.47
2022-08-26T22:54:22.081Z,98962.91
2022-08-26T22:56:49.578Z,98956.91
2022-08-26T22:59:17.157Z,98957.94
2022-08-26T23:01:46.878Z,98954.84
2022-08-26T23:04:15.516Z,98955.28
2022-08-26T23:06:47.567Z,98951.19
2022-08-26T23:09:18.139Z,98950.94
2022-08-26T23:11:48.406Z,98947.00
2022-08-26T23:14:18.082Z,98952.66
2022-08-26T23:16:47.377Z,98955.28
2022-08-26T23:19:21.049Z,98950.47
2022-08-26T23:21:49.637Z,98955.09
2022-08-26T23:24:17.495Z,98959.66
2022-08-26T23:26:46.509Z,98952.78
2022-08-26T23:29:15.708Z,98958.13
2022-08-26T23:31:43.876Z,98960.09
2022-08-26T23:34:30.389Z,98960.34
2022-08-26T23:36:58.982Z,98957.59
2022-08-26T23:39:27.833Z,98965.69
2022-08-26T23:41:56.833Z,98960.28
2022-08-26T23:44:26.561Z,98955.72
2022-08-26T23:46:54.679Z,98961.66
2022-08-26T23:49:22.486Z,98959.41
2022-08-26T23:52:08.610Z,98957.03
2022-08-26T23:54:36.710Z,98962.34
2022-08-26T23:57:04.342Z,98961.66
2022-08-26T23:59:32.184Z,98961.63
